sensor_id;sensor_type;location;lat;lon;timestamp;P1;durP1;ratioP1;P2;durP2;ratioP2
8225;SDS011;4154;48.810;9.012;2022-11-20T00:01:11;5.23;;;4.73;;
8225;SDS011;4154;48.810;9.012;2022-11-20T00:03:40;5.27;;;4.77;;
8225;SDS011;4154;48.810;9.012;2022-11-20T00:06:08;5.40;;;5.00;;
8225;SDS011;4154;48.810;9.012;2022-11-20T00:08:37;5.20;;;4.70;;
8225;SDS011;4154;48.810;9.012;2022-11-20T00:13:34;4.77;;;4.33;;
8225;SDS011;4154;48.810;9.012;2022-11-20T00:16:01;4.20;;;3.80;;
8225;SDS011;4154;48.810;9.012;2022-11-20T00:18:29;4.80;;;4.40;;
8225;SDS011;4154;48.810;9.012;2022-11-20T00:21:04;4.47;;;4.07;;
8225;SDS011;4154;48.810;9.012;2022-11-20T00:23:51;4.23;;;3.83;;
8225;SDS011;4154;48.810;9.012;2022-11-20T00:26:20;4.10;;;3.70;;
8225;SDS011;4154;48.810;9.012;2022-11-20T00:28:54;4.13;;;3.67;;
8225;SDS011;4154;48.810;9.012;2022-11-20T00:31:25;4.13;;;3.73;;
8225;SDS011;4154;48.810;9.012;2022-11-20T00:33:52;5.07;;;3.67;;
8225;SDS011;4154;48.810;9.012;2022-11-20T00:36:19;4.13;;;3.77;;
8225;SDS011;4154;48.810;9.012;2022-11-20T00:38:52;4.17;;;3.60;;
8225;SDS011;4154;48.810;9.012;2022-11-20T00:41:21;3.90;;;3.60;;
8225;SDS011;4154;48.810;9.012;2022-11-20T00:43:48;4.30;;;3.60;;
8225;SDS011;4154;48.810;9.012;2022-11-20T00:46:17;4.50;;;3.10;;
8225;SDS011;4154;48.810;9.012;2022-11-20T00:48:46;3.60;;;3.30;;
8225;SDS011;4154;48.810;9.012;2022-11-20T00:51:16;3.30;;;3.00;;
8225;SDS011;4154;48.810;9.012;2022-11-20T00:56:47;5.13;;;3.50;;
8225;SDS011;4154;48.810;9.012;2022-11-20T00:59:13;3.07;;;2.87;;
8225;SDS011;4154;48.810;9.012;2022-11-20T01:01:39;3.30;;;3.00;;
8225;SDS011;4154;48.810;9.012;2022-11-20T01:04:05;3.40;;;3.10;;
8225;SDS011;4154;48.810;9.012;2022-11-20T01:06:35;3.00;;;2.70;;
8225;SDS011;4154;48.810;9.012;2022-11-20T01:09:04;2.70;;;2.40;;
8225;SDS011;4154;48.810;9.012;2022-11-20T01:11:37;3.00;;;2.70;;
8225;SDS011;4154;48.810;9.012;2022-11-20T01:14:09;3.00;;;2.70;;
8225;SDS011;4154;48.810;9.012;2022-11-20T01:16:42;2.80;;;2.60;;
8225;SDS011;4154;48.810;9.012;2022-11-20T01:19:14;2.50;;;2.30;;
8225;SDS011;4154;48.810;9.012;2022-11-20T01:21:44;3.00;;;2.50;;
8225;SDS011;4154;48.810;9.012;2022-11-20T01:24:14;2.50;;;2.30;;
8225;SDS011;4154;48.810;9.012;2022-11-20T01:26:43;2.40;;;2.20;;
8225;SDS011;4154;48.810;9.012;2022-11-20T01:29:30;2.40;;;2.20;;
8225;SDS011;4154;48.810;9.012;2022-11-20T01:31:55;2.40;;;2.20;;
8225;SDS011;4154;48.810;9.012;2022-11-20T01:34:22;2.40;;;2.00;;
8225;SDS011;4154;48.810;9.012;2022-11-20T01:36:48;2.30;;;2.10;;
8225;SDS011;4154;48.810;9.012;2022-11-20T01:39:16;4.03;;;2.07;;
8225;SDS011;4154;48.810;9.012;2022-11-20T01:41:46;2.10;;;1.90;;
8225;SDS011;4154;48.810;9.012;2022-11-20T01:47:42;2.00;;;1.90;;
8225;SDS011;4154;48.810;9.012;2022-11-20T01:50:15;2.30;;;2.10;;
8225;SDS011;4154;48.810;9.012;2022-11-20T01:55:27;3.20;;;1.90;;
8225;SDS011;4154;48.810;9.012;2022-11-20T01:57:59;2.20;;;1.90;;
8225;SDS011;4154;48.810;9.012;2022-11-20T02:00:27;3.67;;;1.83;;
8225;SDS011;4154;48.810;9.012;2022-11-20T02:02:55;2.00;;;1.80;;
8225;SDS011;4154;48.810;9.012;2022-11-20T02:05:27;2.27;;;1.90;;
8225;SDS011;4154;48.810;9.012;2022-11-20T02:08:31;2.40;;;2.20;;
8225;SDS011;4154;48.810;9.012;2022-11-20T02:10:58;2.43;;;2.17;;
8225;SDS011;4154;48.810;9.012;2022-11-20T02:13:24;2.30;;;2.10;;
8225;SDS011;4154;48.810;9.012;2022-11-20T02:16:13;2.20;;;2.00;;
8225;SDS011;4154;48.810;9.012;2022-11-20T02:18:48;2.13;;;2.00;;
8225;SDS011;4154;48.810;9.012;2022-11-20T02:21:30;2.87;;;2.23;;
8225;SDS011;4154;48.810;9.012;2022-11-20T02:24:11;2.27;;;2.07;;
8225;SDS011;4154;48.810;9.012;2022-11-20T02:29:12;3.27;;;2.10;;
8225;SDS011;4154;48.810;9.012;2022-11-20T02:31:43;2.10;;;2.00;;
8225;SDS011;4154;48.810;9.012;2022-11-20T02:34:09;3.20;;;2.50;;
8225;SDS011;4154;48.810;9.012;2022-11-20T02:36:36;2.40;;;2.17;;
8225;SDS011;4154;48.810;9.012;2022-11-20T02:39:06;2.80;;;2.10;;
8225;SDS011;4154;48.810;9.012;2022-11-20T02:41:35;2.57;;;2.20;;
8225;SDS011;4154;48.810;9.012;2022-11-20T02:44:02;2.37;;;2.17;;
8225;SDS011;4154;48.810;9.012;2022-11-20T02:46:30;2.50;;;2.30;;
8225;SDS011;4154;48.810;9.012;2022-11-20T02:48:57;2.00;;;1.90;;
8225;SDS011;4154;48.810;9.012;2022-11-20T02:51:24;1.93;;;1.83;;
8225;SDS011;4154;48.810;9.012;2022-11-20T02:53:50;2.50;;;2.03;;
8225;SDS011;4154;48.810;9.012;2022-11-20T02:56:16;2.30;;;2.07;;
8225;SDS011;4154;48.810;9.012;2022-11-20T02:58:43;2.30;;;2.10;;
8225;SDS011;4154;48.810;9.012;2022-11-20T03:01:09;3.50;;;2.47;;
8225;SDS011;4154;48.810;9.012;2022-11-20T03:03:35;2.30;;;2.10;;
8225;SDS011;4154;48.810;9.012;2022-11-20T03:06:01;2.03;;;1.87;;
8225;SDS011;4154;48.810;9.012;2022-11-20T03:08:28;2.40;;;2.10;;
8225;SDS011;4154;48.810;9.012;2022-11-20T03:10:54;2.50;;;2.20;;
8225;SDS011;4154;48.810;9.012;2022-11-20T03:13:20;2.13;;;2.03;;
8225;SDS011;4154;48.810;9.012;2022-11-20T03:15:46;3.67;;;2.17;;
8225;SDS011;4154;48.810;9.012;2022-11-20T03:18:12;2.30;;;2.10;;
8225;SDS011;4154;48.810;9.012;2022-11-20T03:20:39;2.93;;;2.20;;
8225;SDS011;4154;48.810;9.012;2022-11-20T03:23:05;2.83;;;2.63;;
8225;SDS011;4154;48.810;9.012;2022-11-20T03:25:32;2.50;;;2.30;;
8225;SDS011;4154;48.810;9.012;2022-11-20T03:27:58;2.50;;;2.23;;
8225;SDS011;4154;48.810;9.012;2022-11-20T03:30:24;2.50;;;2.30;;
8225;SDS011;4154;48.810;9.012;2022-11-20T03:32:52;2.57;;;2.37;;
8225;SDS011;4154;48.810;9.012;2022-11-20T03:35:19;2.90;;;2.70;;
8225;SDS011;4154;48.810;9.012;2022-11-20T03:37:45;3.03;;;2.67;;
8225;SDS011;4154;48.810;9.012;2022-11-20T03:40:11;2.50;;;2.30;;
8225;SDS011;4154;48.810;9.012;2022-11-20T03:42:37;2.80;;;2.50;;
8225;SDS011;4154;48.810;9.012;2022-11-20T03:45:16;2.80;;;2.60;;
8225;SDS011;4154;48.810;9.012;2022-11-20T03:47:43;3.00;;;2.70;;
8225;SDS011;4154;48.810;9.012;2022-11-20T03:50:10;2.83;;;2.63;;
8225;SDS011;4154;48.810;9.012;2022-11-20T03:52:39;3.30;;;3.00;;
8225;SDS011;4154;48.810;9.012;2022-11-20T03:55:06;3.00;;;2.70;;
8225;SDS011;4154;48.810;9.012;2022-11-20T03:57:32;2.73;;;2.53;;
8225;SDS011;4154;48.810;9.012;2022-11-20T03:59:58;3.10;;;2.47;;
8225;SDS011;4154;48.810;9.012;2022-11-20T04:02:25;2.90;;;2.70;;
8225;SDS011;4154;48.810;9.012;2022-11-20T04:04:51;2.60;;;2.40;;
8225;SDS011;4154;48.810;9.012;2022-11-20T04:07:17;3.07;;;2.60;;
8225;SDS011;4154;48.810;9.012;2022-11-20T04:09:43;2.70;;;2.50;;
8225;SDS011;4154;48.810;9.012;2022-11-20T04:12:10;2.87;;;2.53;;
8225;SDS011;4154;48.810;9.012;2022-11-20T04:14:36;2.83;;;2.50;;
8225;SDS011;4154;48.810;9.012;2022-11-20T04:17:03;2.70;;;2.50;;
8225;SDS011;4154;48.810;9.012;2022-11-20T04:19:29;2.87;;;2.47;;
8225;SDS011;4154;48.810;9.012;2022-11-20T04:21:55;3.07;;;2.80;;
8225;SDS011;4154;48.810;9.012;2022-11-20T04:24:21;2.90;;;2.70;;
8225;SDS011;4154;48.810;9.012;2022-11-20T04:26:47;3.07;;;2.70;;
8225;SDS011;4154;48.810;9.012;2022-11-20T04:29:13;2.93;;;2.70;;
8225;SDS011;4154;48.810;9.012;2022-11-20T04:31:40;2.80;;;2.60;;
8225;SDS011;4154;48.810;9.012;2022-11-20T04:34:10;2.97;;;2.70;;
8225;SDS011;4154;48.810;9.012;2022-11-20T04:36:36;3.00;;;2.70;;
8225;SDS011;4154;48.810;9.012;2022-11-20T04:39:03;2.73;;;2.50;;
8225;SDS011;4154;48.810;9.012;2022-11-20T04:41:32;2.50;;;2.30;;
8225;SDS011;4154;48.810;9.012;2022-11-20T04:44:01;2.90;;;2.50;;
8225;SDS011;4154;48.810;9.012;2022-11-20T04:46:31;2.57;;;2.30;;
8225;SDS011;4154;48.810;9.012;2022-11-20T04:49:03;2.70;;;2.50;;
8225;SDS011;4154;48.810;9.012;2022-11-20T04:51:29;3.77;;;2.47;;
8225;SDS011;4154;48.810;9.012;2022-11-20T04:54:02;2.50;;;2.30;;
8225;SDS011;4154;48.810;9.012;2022-11-20T04:56:28;3.30;;;2.30;;
8225;SDS011;4154;48.810;9.012;2022-11-20T04:58:54;2.73;;;2.53;;
8225;SDS011;4154;48.810;9.012;2022-11-20T05:01:21;2.50;;;2.30;;
8225;SDS011;4154;48.810;9.012;2022-11-20T05:03:49;2.63;;;2.23;;
8225;SDS011;4154;48.810;9.012;2022-11-20T05:06:17;2.73;;;2.50;;
8225;SDS011;4154;48.810;9.012;2022-11-20T05:08:44;2.80;;;2.60;;
8225;SDS011;4154;48.810;9.012;2022-11-20T05:11:14;2.40;;;2.20;;
8225;SDS011;4154;48.810;9.012;2022-11-20T05:13:44;2.60;;;2.40;;
8225;SDS011;4154;48.810;9.012;2022-11-20T05:16:11;2.57;;;2.37;;
8225;SDS011;4154;48.810;9.012;2022-11-20T05:18:42;2.90;;;2.60;;
8225;SDS011;4154;48.810;9.012;2022-11-20T05:21:09;3.07;;;2.77;;
8225;SDS011;4154;48.810;9.012;2022-11-20T05:23:36;2.70;;;2.43;;
8225;SDS011;4154;48.810;9.012;2022-11-20T05:26:03;2.93;;;2.63;;
8225;SDS011;4154;48.810;9.012;2022-11-20T05:28:32;3.73;;;2.40;;
8225;SDS011;4154;48.810;9.012;2022-11-20T05:31:06;2.60;;;2.40;;
8225;SDS011;4154;48.810;9.012;2022-11-20T05:33:44;3.00;;;2.70;;
8225;SDS011;4154;48.810;9.012;2022-11-20T05:36:11;2.70;;;2.50;;
8225;SDS011;4154;48.810;9.012;2022-11-20T05:38:39;3.03;;;2.50;;
8225;SDS011;4154;48.810;9.012;2022-11-20T05:41:10;2.87;;;2.63;;
8225;SDS011;4154;48.810;9.012;2022-11-20T05:43:45;2.63;;;2.43;;
8225;SDS011;4154;48.810;9.012;2022-11-20T05:46:13;3.00;;;2.80;;
8225;SDS011;4154;48.810;9.012;2022-11-20T05:48:43;3.07;;;2.80;;
8225;SDS011;4154;48.810;9.012;2022-11-20T05:51:11;2.87;;;2.60;;
8225;SDS011;4154;48.810;9.012;2022-11-20T05:53:50;3.33;;;2.80;;
8225;SDS011;4154;48.810;9.012;2022-11-20T05:56:17;3.17;;;2.60;;
8225;SDS011;4154;48.810;9.012;2022-11-20T05:58:45;3.03;;;2.73;;
8225;SDS011;4154;48.810;9.012;2022-11-20T06:01:22;2.60;;;2.40;;
8225;SDS011;4154;48.810;9.012;2022-11-20T06:03:50;3.57;;;2.60;;
8225;SDS011;4154;48.810;9.012;2022-11-20T06:06:17;3.37;;;2.50;;
8225;SDS011;4154;48.810;9.012;2022-11-20T06:08:44;3.03;;;2.50;;
8225;SDS011;4154;48.810;9.012;2022-11-20T06:11:11;3.30;;;2.37;;
8225;SDS011;4154;48.810;9.012;2022-11-20T06:13:39;2.90;;;2.60;;
8225;SDS011;4154;48.810;9.012;2022-11-20T06:16:06;2.77;;;2.57;;
8225;SDS011;4154;48.810;9.012;2022-11-20T06:18:32;2.53;;;2.33;;
8225;SDS011;4154;48.810;9.012;2022-11-20T06:20:59;2.50;;;2.30;;
8225;SDS011;4154;48.810;9.012;2022-11-20T06:27:12;2.47;;;2.10;;
8225;SDS011;4154;48.810;9.012;2022-11-20T06:29:38;2.20;;;2.00;;
8225;SDS011;4154;48.810;9.012;2022-11-20T06:32:04;2.00;;;1.90;;
8225;SDS011;4154;48.810;9.012;2022-11-20T06:34:30;2.90;;;1.90;;
8225;SDS011;4154;48.810;9.012;2022-11-20T06:36:56;2.57;;;2.03;;
8225;SDS011;4154;48.810;9.012;2022-11-20T06:39:22;2.47;;;1.90;;
8225;SDS011;4154;48.810;9.012;2022-11-20T06:41:48;1.93;;;1.80;;
8225;SDS011;4154;48.810;9.012;2022-11-20T06:44:14;1.77;;;1.63;;
8225;SDS011;4154;48.810;9.012;2022-11-20T06:46:39;1.80;;;1.70;;
8225;SDS011;4154;48.810;9.012;2022-11-20T06:49:06;2.37;;;1.80;;
8225;SDS011;4154;48.810;9.012;2022-11-20T06:51:32;3.30;;;1.60;;
8225;SDS011;4154;48.810;9.012;2022-11-20T06:53:58;2.53;;;1.80;;
8225;SDS011;4154;48.810;9.012;2022-11-20T06:56:25;1.80;;;1.70;;
8225;SDS011;4154;48.810;9.012;2022-11-20T06:58:52;1.70;;;1.60;;
8225;SDS011;4154;48.810;9.012;2022-11-20T07:01:18;1.70;;;1.60;;
8225;SDS011;4154;48.810;9.012;2022-11-20T07:03:44;2.07;;;1.53;;
8225;SDS011;4154;48.810;9.012;2022-11-20T07:06:13;1.90;;;1.80;;
8225;SDS011;4154;48.810;9.012;2022-11-20T07:08:39;1.70;;;1.60;;
8225;SDS011;4154;48.810;9.012;2022-11-20T07:11:06;2.23;;;1.70;;
8225;SDS011;4154;48.810;9.012;2022-11-20T07:13:33;1.90;;;1.70;;
8225;SDS011;4154;48.810;9.012;2022-11-20T07:16:00;1.80;;;1.70;;
8225;SDS011;4154;48.810;9.012;2022-11-20T07:18:28;1.70;;;1.53;;
8225;SDS011;4154;48.810;9.012;2022-11-20T07:20:55;2.13;;;1.60;;
8225;SDS011;4154;48.810;9.012;2022-11-20T07:23:21;1.77;;;1.67;;
8225;SDS011;4154;48.810;9.012;2022-11-20T07:25:47;2.20;;;1.70;;
8225;SDS011;4154;48.810;9.012;2022-11-20T07:28:13;1.60;;;1.50;;
8225;SDS011;4154;48.810;9.012;2022-11-20T07:30:39;2.13;;;1.60;;
8225;SDS011;4154;48.810;9.012;2022-11-20T07:33:06;1.60;;;1.50;;
8225;SDS011;4154;48.810;9.012;2022-11-20T07:35:32;1.60;;;1.50;;
8225;SDS011;4154;48.810;9.012;2022-11-20T07:37:58;2.00;;;1.80;;
8225;SDS011;4154;48.810;9.012;2022-11-20T07:40:24;2.20;;;1.77;;
8225;SDS011;4154;48.810;9.012;2022-11-20T07:42:51;1.60;;;1.50;;
8225;SDS011;4154;48.810;9.012;2022-11-20T07:45:20;2.33;;;1.90;;
8225;SDS011;4154;48.810;9.012;2022-11-20T07:47:48;2.03;;;1.73;;
8225;SDS011;4154;48.810;9.012;2022-11-20T07:50:14;1.80;;;1.70;;
8225;SDS011;4154;48.810;9.012;2022-11-20T07:52:41;1.67;;;1.57;;
8225;SDS011;4154;48.810;9.012;2022-11-20T07:55:08;1.50;;;1.40;;
8225;SDS011;4154;48.810;9.012;2022-11-20T07:57:35;1.50;;;1.40;;
8225;SDS011;4154;48.810;9.012;2022-11-20T08:00:02;1.40;;;1.30;;
8225;SDS011;4154;48.810;9.012;2022-11-20T08:02:30;1.93;;;1.60;;
8225;SDS011;4154;48.810;9.012;2022-11-20T08:04:56;1.60;;;1.50;;
8225;SDS011;4154;48.810;9.012;2022-11-20T08:07:22;2.13;;;1.50;;
8225;SDS011;4154;48.810;9.012;2022-11-20T08:09:48;1.70;;;1.60;;
8225;SDS011;4154;48.810;9.012;2022-11-20T08:12:20;1.60;;;1.50;;
8225;SDS011;4154;48.810;9.012;2022-11-20T08:15:05;2.00;;;1.50;;
8225;SDS011;4154;48.810;9.012;2022-11-20T08:17:32;1.80;;;1.70;;
8225;SDS011;4154;48.810;9.012;2022-11-20T08:19:58;1.93;;;1.60;;
8225;SDS011;4154;48.810;9.012;2022-11-20T08:22:24;1.47;;;1.37;;
8225;SDS011;4154;48.810;9.012;2022-11-20T08:24:51;1.77;;;1.20;;
8225;SDS011;4154;48.810;9.012;2022-11-20T08:27:17;1.27;;;1.20;;
8225;SDS011;4154;48.810;9.012;2022-11-20T08:29:43;1.10;;;1.00;;
8225;SDS011;4154;48.810;9.012;2022-11-20T08:32:09;1.07;;;1.07;;
8225;SDS011;4154;48.810;9.012;2022-11-20T08:34:35;1.20;;;1.10;;
8225;SDS011;4154;48.810;9.012;2022-11-20T08:37:02;1.00;;;1.00;;
8225;SDS011;4154;48.810;9.012;2022-11-20T08:39:28;1.30;;;1.20;;
8225;SDS011;4154;48.810;9.012;2022-11-20T08:41:54;1.27;;;1.20;;
8225;SDS011;4154;48.810;9.012;2022-11-20T08:44:20;0.90;;;0.90;;
8225;SDS011;4154;48.810;9.012;2022-11-20T08:46:47;2.83;;;1.30;;
8225;SDS011;4154;48.810;9.012;2022-11-20T08:49:13;1.13;;;1.10;;
8225;SDS011;4154;48.810;9.012;2022-11-20T08:51:40;1.30;;;1.20;;
8225;SDS011;4154;48.810;9.012;2022-11-20T08:54:06;1.10;;;0.80;;
8225;SDS011;4154;48.810;9.012;2022-11-20T08:56:33;0.97;;;0.97;;
8225;SDS011;4154;48.810;9.012;2022-11-20T08:59:00;1.07;;;1.00;;
8225;SDS011;4154;48.810;9.012;2022-11-20T09:01:27;1.27;;;1.00;;
8225;SDS011;4154;48.810;9.012;2022-11-20T09:03:54;1.23;;;1.07;;
8225;SDS011;4154;48.810;9.012;2022-11-20T09:06:24;1.60;;;1.17;;
8225;SDS011;4154;48.810;9.012;2022-11-20T09:08:52;0.93;;;0.90;;
8225;SDS011;4154;48.810;9.012;2022-11-20T09:11:22;1.13;;;1.03;;
8225;SDS011;4154;48.810;9.012;2022-11-20T09:13:49;1.10;;;1.10;;
8225;SDS011;4154;48.810;9.012;2022-11-20T09:16:16;1.03;;;1.03;;
8225;SDS011;4154;48.810;9.012;2022-11-20T09:18:43;0.90;;;0.90;;
8225;SDS011;4154;48.810;9.012;2022-11-20T09:21:12;1.20;;;1.10;;
8225;SDS011;4154;48.810;9.012;2022-11-20T09:23:39;0.90;;;0.90;;
8225;SDS011;4154;48.810;9.012;2022-11-20T09:26:06;1.13;;;1.03;;
8225;SDS011;4154;48.810;9.012;2022-11-20T09:31:55;1.67;;;1.10;;
8225;SDS011;4154;48.810;9.012;2022-11-20T09:34:24;1.40;;;1.30;;
8225;SDS011;4154;48.810;9.012;2022-11-20T09:36:50;1.10;;;1.00;;
8225;SDS011;4154;48.810;9.012;2022-11-20T09:39:16;2.67;;;1.07;;
8225;SDS011;4154;48.810;9.012;2022-11-20T09:47:19;1.27;;;1.00;;
8225;SDS011;4154;48.810;9.012;2022-11-20T09:56:02;0.70;;;0.70;;
8225;SDS011;4154;48.810;9.012;2022-11-20T09:58:34;1.10;;;0.80;;
8225;SDS011;4154;48.810;9.012;2022-11-20T10:09:30;1.60;;;0.90;;
8225;SDS011;4154;48.810;9.012;2022-11-20T10:12:11;1.03;;;1.03;;
8225;SDS011;4154;48.810;9.012;2022-11-20T10:25:38;1.67;;;1.10;;
8225;SDS011;4154;48.810;9.012;2022-11-20T10:30:45;1.70;;;1.30;;
8225;SDS011;4154;48.810;9.012;2022-11-20T10:33:24;1.30;;;1.20;;
8225;SDS011;4154;48.810;9.012;2022-11-20T10:41:23;1.27;;;1.17;;
8225;SDS011;4154;48.810;9.012;2022-11-20T10:44:10;1.60;;;1.50;;
8225;SDS011;4154;48.810;9.012;2022-11-20T10:47:03;1.57;;;1.47;;
8225;SDS011;4154;48.810;9.012;2022-11-20T10:49:31;1.60;;;1.50;;
8225;SDS011;4154;48.810;9.012;2022-11-20T10:52:09;2.27;;;1.73;;
8225;SDS011;4154;48.810;9.012;2022-11-20T11:00:32;2.07;;;1.80;;
8225;SDS011;4154;48.810;9.012;2022-11-20T11:02:59;1.73;;;1.63;;
8225;SDS011;4154;48.810;9.012;2022-11-20T11:05:36;2.03;;;1.60;;
8225;SDS011;4154;48.810;9.012;2022-11-20T11:08:15;1.70;;;1.60;;
8225;SDS011;4154;48.810;9.012;2022-11-20T11:10:54;2.37;;;2.17;;
8225;SDS011;4154;48.810;9.012;2022-11-20T11:13:30;2.27;;;1.80;;
8225;SDS011;4154;48.810;9.012;2022-11-20T11:15:59;2.83;;;2.10;;
8225;SDS011;4154;48.810;9.012;2022-11-20T11:18:33;2.37;;;2.00;;
8225;SDS011;4154;48.810;9.012;2022-11-20T11:21:00;3.20;;;2.10;;
8225;SDS011;4154;48.810;9.012;2022-11-20T11:26:05;2.33;;;2.10;;
8225;SDS011;4154;48.810;9.012;2022-11-20T11:28:59;3.63;;;2.20;;
8225;SDS011;4154;48.810;9.012;2022-11-20T11:31:32;2.10;;;1.90;;
8225;SDS011;4154;48.810;9.012;2022-11-20T11:34:03;1.70;;;1.60;;
8225;SDS011;4154;48.810;9.012;2022-11-20T11:36:31;2.27;;;1.97;;
8225;SDS011;4154;48.810;9.012;2022-11-20T11:38:59;3.07;;;1.90;;
8225;SDS011;4154;48.810;9.012;2022-11-20T11:41:30;2.47;;;1.90;;
8225;SDS011;4154;48.810;9.012;2022-11-20T11:44:15;4.30;;;2.00;;
8225;SDS011;4154;48.810;9.012;2022-11-20T11:47:01;3.10;;;1.93;;
8225;SDS011;4154;48.810;9.012;2022-11-20T11:49:31;2.37;;;1.67;;
8225;SDS011;4154;48.810;9.012;2022-11-20T11:54:31;3.87;;;1.70;;
8225;SDS011;4154;48.810;9.012;2022-11-20T12:00:21;1.40;;;1.30;;
8225;SDS011;4154;48.810;9.012;2022-11-20T12:05:18;2.27;;;1.30;;
8225;SDS011;4154;48.810;9.012;2022-11-20T12:16:39;3.60;;;2.27;;
8225;SDS011;4154;48.810;9.012;2022-11-20T12:19:13;3.37;;;1.90;;
8225;SDS011;4154;48.810;9.012;2022-11-20T12:21:45;2.20;;;2.00;;
8225;SDS011;4154;48.810;9.012;2022-11-20T12:24:52;1.77;;;1.30;;
8225;SDS011;4154;48.810;9.012;2022-11-20T12:30:24;2.13;;;1.27;;
8225;SDS011;4154;48.810;9.012;2022-11-20T12:32:54;2.37;;;1.10;;
8225;SDS011;4154;48.810;9.012;2022-11-20T12:39:12;1.53;;;1.00;;
8225;SDS011;4154;48.810;9.012;2022-11-20T12:51:03;2.20;;;1.10;;
8225;SDS011;4154;48.810;9.012;2022-11-20T13:02:29;1.27;;;1.10;;
8225;SDS011;4154;48.810;9.012;2022-11-20T13:05:55;1.00;;;0.83;;
8225;SDS011;4154;48.810;9.012;2022-11-20T13:08:39;1.87;;;1.00;;
8225;SDS011;4154;48.810;9.012;2022-11-20T13:20:04;1.20;;;1.10;;
8225;SDS011;4154;48.810;9.012;2022-11-20T13:22:47;1.00;;;0.90;;
8225;SDS011;4154;48.810;9.012;2022-11-20T13:25:35;1.40;;;1.10;;
8225;SDS011;4154;48.810;9.012;2022-11-20T13:28:26;1.50;;;0.90;;
8225;SDS011;4154;48.810;9.012;2022-11-20T13:30:55;2.53;;;1.10;;
8225;SDS011;4154;48.810;9.012;2022-11-20T13:33:27;1.30;;;1.20;;
8225;SDS011;4154;48.810;9.012;2022-11-20T13:36:04;1.77;;;1.10;;
8225;SDS011;4154;48.810;9.012;2022-11-20T13:38:54;1.20;;;1.10;;
8225;SDS011;4154;48.810;9.012;2022-11-20T13:44:12;1.27;;;1.00;;
8225;SDS011;4154;48.810;9.012;2022-11-20T13:46:49;0.90;;;0.90;;
8225;SDS011;4154;48.810;9.012;2022-11-20T13:52:27;1.10;;;0.93;;
8225;SDS011;4154;48.810;9.012;2022-11-20T14:00:49;1.33;;;1.20;;
8225;SDS011;4154;48.810;9.012;2022-11-20T14:03:36;1.90;;;1.00;;
8225;SDS011;4154;48.810;9.012;2022-11-20T14:06:11;1.23;;;1.00;;
8225;SDS011;4154;48.810;9.012;2022-11-20T14:08:54;1.53;;;1.10;;
8225;SDS011;4154;48.810;9.012;2022-11-20T14:11:22;1.40;;;1.20;;
8225;SDS011;4154;48.810;9.012;2022-11-20T14:14:00;1.23;;;1.10;;
8225;SDS011;4154;48.810;9.012;2022-11-20T14:16:38;2.70;;;1.30;;
8225;SDS011;4154;48.810;9.012;2022-11-20T14:21:46;4.47;;;1.40;;
8225;SDS011;4154;48.810;9.012;2022-11-20T14:24:14;1.30;;;1.20;;
8225;SDS011;4154;48.810;9.012;2022-11-20T14:26:46;1.63;;;1.50;;
8225;SDS011;4154;48.810;9.012;2022-11-20T14:29:21;2.23;;;1.47;;
8225;SDS011;4154;48.810;9.012;2022-11-20T14:31:53;2.13;;;1.70;;
8225;SDS011;4154;48.810;9.012;2022-11-20T14:34:25;2.20;;;1.90;;
8225;SDS011;4154;48.810;9.012;2022-11-20T14:36:58;2.40;;;1.73;;
8225;SDS011;4154;48.810;9.012;2022-11-20T14:39:33;2.10;;;1.90;;
8225;SDS011;4154;48.810;9.012;2022-11-20T14:42:16;1.90;;;1.70;;
8225;SDS011;4154;48.810;9.012;2022-11-20T14:44:51;2.37;;;1.40;;
8225;SDS011;4154;48.810;9.012;2022-11-20T14:47:22;2.10;;;1.47;;
8225;SDS011;4154;48.810;9.012;2022-11-20T14:49:51;2.67;;;1.60;;
8225;SDS011;4154;48.810;9.012;2022-11-20T14:52:23;2.07;;;1.80;;
8225;SDS011;4154;48.810;9.012;2022-11-20T14:54:56;3.60;;;3.10;;
8225;SDS011;4154;48.810;9.012;2022-11-20T14:57:33;2.97;;;2.60;;
8225;SDS011;4154;48.810;9.012;2022-11-20T15:02:43;2.70;;;2.27;;
8225;SDS011;4154;48.810;9.012;2022-11-20T15:05:12;2.60;;;2.00;;
8225;SDS011;4154;48.810;9.012;2022-11-20T15:07:40;2.47;;;2.20;;
8225;SDS011;4154;48.810;9.012;2022-11-20T16:31:41;2.70;;;2.50;;
8225;SDS011;4154;48.810;9.012;2022-11-20T16:45:00;2.67;;;2.47;;
8225;SDS011;4154;48.810;9.012;2022-11-20T17:21:28;1.83;;;1.70;;
8225;SDS011;4154;48.810;9.012;2022-11-20T18:32:28;5.20;;;3.13;;
8225;SDS011;4154;48.810;9.012;2022-11-20T19:04:55;2.87;;;2.57;;
8225;SDS011;4154;48.810;9.012;2022-11-20T19:19:07;3.13;;;1.90;;
8225;SDS011;4154;48.810;9.012;2022-11-20T19:40:59;2.80;;;2.27;;
8225;SDS011;4154;48.810;9.012;2022-11-20T20:02:39;1.30;;;1.20;;
8225;SDS011;4154;48.810;9.012;2022-11-20T20:06:15;0.60;;;0.60;;
8225;SDS011;4154;48.810;9.012;2022-11-20T20:24:49;0.50;;;0.50;;
8225;SDS011;4154;48.810;9.012;2022-11-20T20:27:29;0.50;;;0.47;;
8225;SDS011;4154;48.810;9.012;2022-11-20T20:41:49;0.63;;;0.63;;
8225;SDS011;4154;48.810;9.012;2022-11-20T20:44:52;0.50;;;0.50;;
8225;SDS011;4154;48.810;9.012;2022-11-20T20:50:40;1.13;;;0.77;;
8225;SDS011;4154;48.810;9.012;2022-11-20T20:53:25;0.90;;;0.90;;
8225;SDS011;4154;48.810;9.012;2022-11-20T20:56:06;0.90;;;0.90;;
8225;SDS011;4154;48.810;9.012;2022-11-20T20:59:03;0.53;;;0.53;;
8225;SDS011;4154;48.810;9.012;2022-11-20T21:01:45;0.40;;;0.40;;
8225;SDS011;4154;48.810;9.012;2022-11-20T21:04:26;0.40;;;0.40;;
8225;SDS011;4154;48.810;9.012;2022-11-20T21:07:37;0.60;;;0.60;;
8225;SDS011;4154;48.810;9.012;2022-11-20T21:13:31;0.50;;;0.50;;
8225;SDS011;4154;48.810;9.012;2022-11-20T21:38:29;0.70;;;0.70;;
8225;SDS011;4154;48.810;9.012;2022-11-20T21:45:15;1.77;;;0.93;;
